Waf_motion — 4RBK — position and weather

sailwx.info

Track history (hours):
 
Tides and Currents Weather Stations Pressure Air Temp Water Temp Dewpoint Dewpoint Depression Visibility Wind Speed Wind Dir Waves Ship Positions

Waf_motion

Last reported at 2017-Mar-27 02:32 UTC. Time now 2017-Mar-27 02:41 UTC.
Position N 38°31' W 008°52'.

Length 140 m; draft 7.4 m.

Type: Ship (hazmat cat A). MMSI: 417222324.

Date/timePositionNaut miles runAvg speedWind from/ knotsBaromVisibWave heightAir tempDewpointWater temp
2017-Mar-27 02:32N 38°31' W 008°52'0 0.0
2017-Mar-27 01:32N 38°31' W 008°52'0 0.0
2017-Mar-26 23:06N 38°31' W 008°52'3 5.3
2017-Mar-26 22:33N 38°30' W 008°56'8 8.2
2017-Mar-26 21:33N 38°22' W 009°00'1312.6
2017-Mar-26 20:34N 38°10' W 009°06'1010.0
2017-Mar-26 19:34N 38°19' W 009°11'1414.0
2017-Mar-26 18:34N 38°22' W 009°29'1413.7
2017-Mar-26 17:33N 38°27' W 009°46'1313.2
2017-Mar-26 16:33N 38°31' W 010°01'1313.0
2017-Mar-26 15:33N 38°43' W 010°07'1313.1
2017-Mar-26 14:33N 38°56' W 010°08'1413.6
2017-Mar-26 13:33N 39°10' W 010°08'55312.3
2017-Mar-24 16:32N 46°48' W 003°06'1414.4
2017-Mar-24 15:32N 46°56' W 002°49'1513.7
2017-Mar-24 14:28N 47°03' W 002°30'1512.6
2017-Mar-24 13:18N 47°14' W 002°15'3 4.1
2017-Mar-24 12:34N 47°16' W 002°12'1 0.9
2017-Mar-24 11:32N 47°17' W 002°12'0 0.0
2017-Mar-24 10:29N 47°17' W 002°12'0 0.0
2017-Mar-24 09:32N 47°17' W 002°12'0 0.0
2017-Mar-24 08:32N 47°17' W 002°12'0 0.0
2017-Mar-24 07:32N 47°17' W 002°12'0 0.0
2017-Mar-24 06:32N 47°17' W 002°12'0 0.0
2017-Mar-24 05:32N 47°17' W 002°12'0 0.0
2017-Mar-24 04:32N 47°17' W 002°12'0 0.0
2017-Mar-24 03:29N 47°17' W 002°12'0 0.0
2017-Mar-24 02:32N 47°17' W 002°12'0 0.0
2017-Mar-24 01:32N 47°17' W 002°12'0 0.0
2017-Mar-24 00:32N 47°17' W 002°12'0 0.0
2017-Mar-23 23:32N 47°17' W 002°12'0 0.0
2017-Mar-23 22:32N 47°17' W 002°12'0 0.0
2017-Mar-23 21:32N 47°17' W 002°12'0 0.0
2017-Mar-23 20:32N 47°17' W 002°12'0 0.0
2017-Mar-23 19:32N 47°17' W 002°12'0 0.0
2017-Mar-23 18:32N 47°17' W 002°12'0 0.0
2017-Mar-23 17:32N 47°17' W 002°12'0 0.0
2017-Mar-23 16:32N 47°17' W 002°12'0 0.0
2017-Mar-23 15:32N 47°17' W 002°12'0 0.0
2017-Mar-23 14:14N 47°17' W 002°12'0 0.0
2017-Mar-23 13:32N 47°17' W 002°12'0 0.0
2017-Mar-23 12:26N 47°17' W 002°12'0 0.0
2017-Mar-23 11:32N 47°17' W 002°12'0 0.0
2017-Mar-23 10:29N 47°17' W 002°12'0 0.0
2017-Mar-23 09:23N 47°17' W 002°12'0 0.0
2017-Mar-23 08:29N 47°17' W 002°12'0 0.0
2017-Mar-23 07:26N 47°17' W 002°12'0 0.0
2017-Mar-23 06:32N 47°17' W 002°12'0 0.0
2017-Mar-23 05:29N 47°17' W 002°12'0 0.0
2017-Mar-23 04:29N 47°17' W 002°12'0 0.0
2017-Mar-23 03:29N 47°17' W 002°12'0 0.0
2017-Mar-23 02:32N 47°17' W 002°12'0 0.0
2017-Mar-23 01:32N 47°17' W 002°12'1 0.9
2017-Mar-23 00:32N 47°16' W 002°12'4 4.4
2017-Mar-22 23:33N 47°13' W 002°16'9 8.8
2017-Mar-22 22:33N 47°07' W 002°26'1 0.4
2017-Mar-22 20:25N 47°08' W 002°26'0 0.0
2017-Mar-22 19:31N 47°08' W 002°26'0 0.0
2017-Mar-22 18:28N 47°08' W 002°26'0 0.0
2017-Mar-22 17:31N 47°08' W 002°26'0 0.1
2017-Mar-22 16:31N 47°08' W 002°26'0 0.0
2017-Mar-22 14:31N 47°08' W 002°26'0 0.1
2017-Mar-22 13:25N 47°08' W 002°26'0 0.0
2017-Mar-22 10:22N 47°08' W 002°26'0 0.0
2017-Mar-22 09:31N 47°08' W 002°26'0 0.0
2017-Mar-22 08:31N 47°08' W 002°26'0 0.0
2017-Mar-22 07:28N 47°08' W 002°26'0 0.1
2017-Mar-22 06:33N 47°08' W 002°26'4 4.4
2017-Mar-22 05:34N 47°04' W 002°28'1413.4
2017-Mar-22 04:32N 46°59' W 002°47'1413.7
2017-Mar-22 03:32N 47°02' W 003°07'1413.8
2017-Mar-22 02:32N 47°08' W 003°26'1313.5
2017-Mar-22 01:34N 47°13' W 003°43'152 7.5
2017-Mar-21 05:15N 49°45' W 003°32'1212.8
2017-Mar-21 04:21N 49°51' W 003°17'1012.6
2017-Mar-21 03:33N 49°57' W 003°03'4711.2
2017-Mar-20 23:19N 50°10' W 001°53'911.2
2017-Mar-20 22:33N 50°12' W 001°40'1212.0
2017-Mar-20 21:33N 50°16' W 001°22'4013.4
2017-Mar-20 18:33N 50°27' W 000°21'1312.8
2017-Mar-20 17:33N 50°30' W 000°02'1312.0
2017-Mar-20 16:30N 50°34' E 000°17'1111.6
2017-Mar-20 15:33N 50°37' E 000°34'1111.2
2017-Mar-20 14:33N 50°42' E 000°49'2311.4
2017-Mar-20 12:33N 50°58' E 001°16'1312.6
2017-Mar-20 11:33N 51°06' E 001°31'1312.7
2017-Mar-20 10:33N 51°14' E 001°46'1212.1
2017-Mar-20 09:33N 51°24' E 001°58'1110.9
2017-Mar-20 08:33N 51°21' E 002°15'1111.3
2017-Mar-20 07:33N 51°23' E 002°32'1110.8
2017-Mar-20 06:33N 51°22' E 002°50'1211.6
2017-Mar-20 05:33N 51°24' E 003°08'1111.3
2017-Mar-20 04:33N 51°25' E 003°26'9 8.8
2017-Mar-20 03:31N 51°26' E 003°41'19 8.7
2017-Mar-20 01:19N 51°24' E 004°11'5 6.6
2017-Mar-20 00:34N 51°21' E 004°17'1 1.3
2017-Mar-19 23:33N 51°20' E 004°18'4 3.6
2017-Mar-19 22:31N 51°16' E 004°21'0 0.0
2017-Mar-19 21:31N 51°16' E 004°21'0 0.0
2017-Mar-19 20:31N 51°16' E 004°21'0 0.0
2017-Mar-19 19:31N 51°16' E 004°21'0 0.0
2017-Mar-19 18:31N 51°16' E 004°21'0 0.0
2017-Mar-19 17:31N 51°16' E 004°21'0 0.0
2017-Mar-19 16:31N 51°16' E 004°21'0 0.0
2017-Mar-19 15:31N 51°16' E 004°21'0 0.0
2017-Mar-19 14:31N 51°16' E 004°21'0 0.0
2017-Mar-19 13:31N 51°16' E 004°21'0 0.0
2017-Mar-19 12:31N 51°16' E 004°21'0 0.0
2017-Mar-19 11:31N 51°16' E 004°21'1 0.6
2017-Mar-19 10:33N 51°16' E 004°21'3 2.7
2017-Mar-19 09:32N 51°15' E 004°24'0 0.0
2017-Mar-19 08:32N 51°15' E 004°24'0 0.0
2017-Mar-19 07:32N 51°15' E 004°24'0 0.0
2017-Mar-19 06:32N 51°15' E 004°24'0 0.0
2017-Mar-19 05:32N 51°15' E 004°24'0 0.0
2017-Mar-19 04:32N 51°15' E 004°24'0 0.0
2017-Mar-19 03:32N 51°15' E 004°24'0 0.0
2017-Mar-19 02:32N 51°15' E 004°24'0 0.0
2017-Mar-19 01:32N 51°15' E 004°24'0 0.0
2017-Mar-19 00:32N 51°15' E 004°24'0 0.0
2017-Mar-18 23:32N 51°15' E 004°24'0 0.0
2017-Mar-18 22:32N 51°15' E 004°24'0 0.0
2017-Mar-18 21:32N 51°15' E 004°24'0 0.0
2017-Mar-18 20:32N 51°15' E 004°24'0 0.0
2017-Mar-18 19:32N 51°15' E 004°24'0 0.0
2017-Mar-18 18:32N 51°15' E 004°24'0 0.0
2017-Mar-18 17:32N 51°15' E 004°24'0 0.0
2017-Mar-18 16:32N 51°15' E 004°24'0 0.0
2017-Mar-18 15:32N 51°15' E 004°24'0 0.0
2017-Mar-18 14:32N 51°15' E 004°24'0 0.0
2017-Mar-18 13:32N 51°15' E 004°24'0 0.0
2017-Mar-18 12:32N 51°15' E 004°24'0 0.0
2017-Mar-18 11:32N 51°15' E 004°24'0 0.0
2017-Mar-18 10:32N 51°15' E 004°24'0 0.0
2017-Mar-18 09:32N 51°15' E 004°24'0 0.0
2017-Mar-18 08:32N 51°15' E 004°24'0 0.0
2017-Mar-18 07:32N 51°15' E 004°24'0 0.0
2017-Mar-18 06:32N 51°15' E 004°24'0 0.0
2017-Mar-18 05:32N 51°15' E 004°24'0 0.0
2017-Mar-18 04:32N 51°15' E 004°24'0 0.0
2017-Mar-18 03:32N 51°15' E 004°24'0 0.0
2017-Mar-18 02:29N 51°15' E 004°24'0 0.0
2017-Mar-18 01:32N 51°15' E 004°24'0 0.0
2017-Mar-18 00:32N 51°15' E 004°24'0 0.0
2017-Mar-17 23:32N 51°15' E 004°24'0 0.0
2017-Mar-17 22:32N 51°15' E 004°24'0 0.0
2017-Mar-17 21:29N 51°15' E 004°24'0 0.0
2017-Mar-17 20:32N 51°15' E 004°24'0 0.0
2017-Mar-17 19:32N 51°15' E 004°24'0 0.0
2017-Mar-17 18:32N 51°15' E 004°24'0 0.0
2017-Mar-17 17:32N 51°15' E 004°24'0 0.0
2017-Mar-17 16:29N 51°15' E 004°24'0 0.0
2017-Mar-17 15:32N 51°15' E 004°24'0 0.0
2017-Mar-17 14:32N 51°15' E 004°24'0 0.0
2017-Mar-17 13:32N 51°15' E 004°24'0 0.0
2017-Mar-17 12:32N 51°15' E 004°24'0 0.0
2017-Mar-17 11:17N 51°15' E 004°24'0 0.0
2017-Mar-17 10:32N 51°15' E 004°24'0 0.0
2017-Mar-17 09:32N 51°15' E 004°24'0 0.0
2017-Mar-17 08:32N 51°15' E 004°24'0 0.0
2017-Mar-17 07:32N 51°15' E 004°24'0 0.0
2017-Mar-17 06:32N 51°15' E 004°24'0 0.0
2017-Mar-17 05:32N 51°15' E 004°24'0 0.0
2017-Mar-17 04:32N 51°15' E 004°24'0 0.0
2017-Mar-17 03:32N 51°15' E 004°24'  
Track history (hours):
 
Tides and Currents Weather Stations Pressure Air Temp Water Temp Dewpoint Dewpoint Depression Visibility Wind Speed Wind Dir Waves Ship Positions

Waf_motion

Last reported at 2017-Mar-27 02:32 UTC. Time now 2017-Mar-27 02:41 UTC.
Position N 38°31' W 008°52'.

Length 140 m; draft 7.4 m.

Type: Ship (hazmat cat A). MMSI: 417222324.

Date/timePositionNaut miles runAvg speedWind from/ knotsBaromVisibWave heightAir tempDewpointWater temp
2017-Mar-27 02:32N 38°31' W 008°52'0 0.0
2017-Mar-27 01:32N 38°31' W 008°52'0 0.0
2017-Mar-26 23:06N 38°31' W 008°52'3 5.3
2017-Mar-26 22:33N 38°30' W 008°56'8 8.2
2017-Mar-26 21:33N 38°22' W 009°00'1312.6
2017-Mar-26 20:34N 38°10' W 009°06'1010.0
2017-Mar-26 19:34N 38°19' W 009°11'1414.0
2017-Mar-26 18:34N 38°22' W 009°29'1413.7
2017-Mar-26 17:33N 38°27' W 009°46'1313.2
2017-Mar-26 16:33N 38°31' W 010°01'1313.0
2017-Mar-26 15:33N 38°43' W 010°07'1313.1
2017-Mar-26 14:33N 38°56' W 010°08'1413.6
2017-Mar-26 13:33N 39°10' W 010°08'55312.3
2017-Mar-24 16:32N 46°48' W 003°06'1414.4
2017-Mar-24 15:32N 46°56' W 002°49'1513.7
2017-Mar-24 14:28N 47°03' W 002°30'1512.6
2017-Mar-24 13:18N 47°14' W 002°15'3 4.1
2017-Mar-24 12:34N 47°16' W 002°12'1 0.9
2017-Mar-24 11:32N 47°17' W 002°12'0 0.0
2017-Mar-24 10:29N 47°17' W 002°12'0 0.0
2017-Mar-24 09:32N 47°17' W 002°12'0 0.0
2017-Mar-24 08:32N 47°17' W 002°12'0 0.0
2017-Mar-24 07:32N 47°17' W 002°12'0 0.0
2017-Mar-24 06:32N 47°17' W 002°12'0 0.0
2017-Mar-24 05:32N 47°17' W 002°12'0 0.0
2017-Mar-24 04:32N 47°17' W 002°12'0 0.0
2017-Mar-24 03:29N 47°17' W 002°12'0 0.0
2017-Mar-24 02:32N 47°17' W 002°12'0 0.0
2017-Mar-24 01:32N 47°17' W 002°12'0 0.0
2017-Mar-24 00:32N 47°17' W 002°12'0 0.0
2017-Mar-23 23:32N 47°17' W 002°12'0 0.0
2017-Mar-23 22:32N 47°17' W 002°12'0 0.0
2017-Mar-23 21:32N 47°17' W 002°12'0 0.0
2017-Mar-23 20:32N 47°17' W 002°12'0 0.0
2017-Mar-23 19:32N 47°17' W 002°12'0 0.0
2017-Mar-23 18:32N 47°17' W 002°12'0 0.0
2017-Mar-23 17:32N 47°17' W 002°12'0 0.0
2017-Mar-23 16:32N 47°17' W 002°12'0 0.0
2017-Mar-23 15:32N 47°17' W 002°12'0 0.0
2017-Mar-23 14:14N 47°17' W 002°12'0 0.0
2017-Mar-23 13:32N 47°17' W 002°12'0 0.0
2017-Mar-23 12:26N 47°17' W 002°12'0 0.0
2017-Mar-23 11:32N 47°17' W 002°12'0 0.0
2017-Mar-23 10:29N 47°17' W 002°12'0 0.0
2017-Mar-23 09:23N 47°17' W 002°12'0 0.0
2017-Mar-23 08:29N 47°17' W 002°12'0 0.0
2017-Mar-23 07:26N 47°17' W 002°12'0 0.0
2017-Mar-23 06:32N 47°17' W 002°12'0 0.0
2017-Mar-23 05:29N 47°17' W 002°12'0 0.0
2017-Mar-23 04:29N 47°17' W 002°12'0 0.0
2017-Mar-23 03:29N 47°17' W 002°12'0 0.0
2017-Mar-23 02:32N 47°17' W 002°12'0 0.0
2017-Mar-23 01:32N 47°17' W 002°12'1 0.9
2017-Mar-23 00:32N 47°16' W 002°12'4 4.4
2017-Mar-22 23:33N 47°13' W 002°16'9 8.8
2017-Mar-22 22:33N 47°07' W 002°26'1 0.4
2017-Mar-22 20:25N 47°08' W 002°26'0 0.0
2017-Mar-22 19:31N 47°08' W 002°26'0 0.0
2017-Mar-22 18:28N 47°08' W 002°26'0 0.0
2017-Mar-22 17:31N 47°08' W 002°26'0 0.1
2017-Mar-22 16:31N 47°08' W 002°26'0 0.0
2017-Mar-22 14:31N 47°08' W 002°26'0 0.1
2017-Mar-22 13:25N 47°08' W 002°26'0 0.0
2017-Mar-22 10:22N 47°08' W 002°26'0 0.0
2017-Mar-22 09:31N 47°08' W 002°26'0 0.0
2017-Mar-22 08:31N 47°08' W 002°26'0 0.0
2017-Mar-22 07:28N 47°08' W 002°26'0 0.1
2017-Mar-22 06:33N 47°08' W 002°26'4 4.4
2017-Mar-22 05:34N 47°04' W 002°28'1413.4
2017-Mar-22 04:32N 46°59' W 002°47'1413.7
2017-Mar-22 03:32N 47°02' W 003°07'1413.8
2017-Mar-22 02:32N 47°08' W 003°26'1313.5
2017-Mar-22 01:34N 47°13' W 003°43'152 7.5
2017-Mar-21 05:15N 49°45' W 003°32'1212.8
2017-Mar-21 04:21N 49°51' W 003°17'1012.6
2017-Mar-21 03:33N 49°57' W 003°03'4711.2
2017-Mar-20 23:19N 50°10' W 001°53'911.2
2017-Mar-20 22:33N 50°12' W 001°40'1212.0
2017-Mar-20 21:33N 50°16' W 001°22'4013.4
2017-Mar-20 18:33N 50°27' W 000°21'1312.8
2017-Mar-20 17:33N 50°30' W 000°02'1312.0
2017-Mar-20 16:30N 50°34' E 000°17'1111.6
2017-Mar-20 15:33N 50°37' E 000°34'1111.2
2017-Mar-20 14:33N 50°42' E 000°49'2311.4
2017-Mar-20 12:33N 50°58' E 001°16'1312.6
2017-Mar-20 11:33N 51°06' E 001°31'1312.7
2017-Mar-20 10:33N 51°14' E 001°46'1212.1
2017-Mar-20 09:33N 51°24' E 001°58'1110.9
2017-Mar-20 08:33N 51°21' E 002°15'1111.3
2017-Mar-20 07:33N 51°23' E 002°32'1110.8
2017-Mar-20 06:33N 51°22' E 002°50'1211.6
2017-Mar-20 05:33N 51°24' E 003°08'1111.3
2017-Mar-20 04:33N 51°25' E 003°26'9 8.8
2017-Mar-20 03:31N 51°26' E 003°41'19 8.7
2017-Mar-20 01:19N 51°24' E 004°11'5 6.6
2017-Mar-20 00:34N 51°21' E 004°17'1 1.3
2017-Mar-19 23:33N 51°20' E 004°18'4 3.6
2017-Mar-19 22:31N 51°16' E 004°21'0 0.0
2017-Mar-19 21:31N 51°16' E 004°21'0 0.0
2017-Mar-19 20:31N 51°16' E 004°21'0 0.0
2017-Mar-19 19:31N 51°16' E 004°21'0 0.0
2017-Mar-19 18:31N 51°16' E 004°21'0 0.0
2017-Mar-19 17:31N 51°16' E 004°21'0 0.0
2017-Mar-19 16:31N 51°16' E 004°21'0 0.0
2017-Mar-19 15:31N 51°16' E 004°21'0 0.0
2017-Mar-19 14:31N 51°16' E 004°21'0 0.0
2017-Mar-19 13:31N 51°16' E 004°21'0 0.0
2017-Mar-19 12:31N 51°16' E 004°21'0 0.0
2017-Mar-19 11:31N 51°16' E 004°21'1 0.6
2017-Mar-19 10:33N 51°16' E 004°21'3 2.7
2017-Mar-19 09:32N 51°15' E 004°24'0 0.0
2017-Mar-19 08:32N 51°15' E 004°24'0 0.0
2017-Mar-19 07:32N 51°15' E 004°24'0 0.0
2017-Mar-19 06:32N 51°15' E 004°24'0 0.0
2017-Mar-19 05:32N 51°15' E 004°24'0 0.0
2017-Mar-19 04:32N 51°15' E 004°24'0 0.0
2017-Mar-19 03:32N 51°15' E 004°24'0 0.0
2017-Mar-19 02:32N 51°15' E 004°24'0 0.0
2017-Mar-19 01:32N 51°15' E 004°24'0 0.0
2017-Mar-19 00:32N 51°15' E 004°24'0 0.0
2017-Mar-18 23:32N 51°15' E 004°24'0 0.0
2017-Mar-18 22:32N 51°15' E 004°24'0 0.0
2017-Mar-18 21:32N 51°15' E 004°24'0 0.0
2017-Mar-18 20:32N 51°15' E 004°24'0 0.0
2017-Mar-18 19:32N 51°15' E 004°24'0 0.0
2017-Mar-18 18:32N 51°15' E 004°24'0 0.0
2017-Mar-18 17:32N 51°15' E 004°24'0 0.0
2017-Mar-18 16:32N 51°15' E 004°24'0 0.0
2017-Mar-18 15:32N 51°15' E 004°24'0 0.0
2017-Mar-18 14:32N 51°15' E 004°24'0 0.0
2017-Mar-18 13:32N 51°15' E 004°24'0 0.0
2017-Mar-18 12:32N 51°15' E 004°24'0 0.0
2017-Mar-18 11:32N 51°15' E 004°24'0 0.0
2017-Mar-18 10:32N 51°15' E 004°24'0 0.0
2017-Mar-18 09:32N 51°15' E 004°24'0 0.0
2017-Mar-18 08:32N 51°15' E 004°24'0 0.0
2017-Mar-18 07:32N 51°15' E 004°24'0 0.0
2017-Mar-18 06:32N 51°15' E 004°24'0 0.0
2017-Mar-18 05:32N 51°15' E 004°24'0 0.0
2017-Mar-18 04:32N 51°15' E 004°24'0 0.0
2017-Mar-18 03:32N 51°15' E 004°24'0 0.0
2017-Mar-18 02:29N 51°15' E 004°24'0 0.0
2017-Mar-18 01:32N 51°15' E 004°24'0 0.0
2017-Mar-18 00:32N 51°15' E 004°24'0 0.0
2017-Mar-17 23:32N 51°15' E 004°24'0 0.0
2017-Mar-17 22:32N 51°15' E 004°24'0 0.0
2017-Mar-17 21:29N 51°15' E 004°24'0 0.0
2017-Mar-17 20:32N 51°15' E 004°24'0 0.0
2017-Mar-17 19:32N 51°15' E 004°24'0 0.0
2017-Mar-17 18:32N 51°15' E 004°24'0 0.0
2017-Mar-17 17:32N 51°15' E 004°24'0 0.0
2017-Mar-17 16:29N 51°15' E 004°24'0 0.0
2017-Mar-17 15:32N 51°15' E 004°24'0 0.0
2017-Mar-17 14:32N 51°15' E 004°24'0 0.0
2017-Mar-17 13:32N 51°15' E 004°24'0 0.0
2017-Mar-17 12:32N 51°15' E 004°24'0 0.0
2017-Mar-17 11:17N 51°15' E 004°24'0 0.0
2017-Mar-17 10:32N 51°15' E 004°24'0 0.0
2017-Mar-17 09:32N 51°15' E 004°24'0 0.0
2017-Mar-17 08:32N 51°15' E 004°24'0 0.0
2017-Mar-17 07:32N 51°15' E 004°24'0 0.0
2017-Mar-17 06:32N 51°15' E 004°24'0 0.0
2017-Mar-17 05:32N 51°15' E 004°24'0 0.0
2017-Mar-17 04:32N 51°15' E 004°24'0 0.0
2017-Mar-17 03:32N 51°15' E 004°24'  

Dump ship's entire track history